Time;durP1;ratioP1;P1;durP2;ratioP2;P2;SDS_P1;SDS_P2;PMS_P1;PMS_P2;Temp;Humidity;BMP_temperature;BMP_pressure;BME280_temperature;BME280_humidity;BME280_pressure;Samples;Min_cycle;Max_cycle;Signal;HPM_P1;HPM_P2
2023/06/27 00:02:00;;;;;;;;;;;;;;;;;;5010083;28;20505;-60
2023/06/27 00:04:28;;;;;;;;;;;;;;;;;;5012512;28;19917;-59
2023/06/27 00:06:53;;;;;;;;;;;;;;;;;;5009956;28;20407;-59
2023/06/27 00:09:19;;;;;;;;;;;;;;;;;;5011841;28;19931;-61
2023/06/27 00:11:44;;;;;;;;;;;;;;;;;;5010896;28;19913;-60
2023/06/27 00:14:09;;;;;;;;;;;;;;;;;;5010967;28;20032;-60
2023/06/27 00:16:36;;;;;;;;;;;;;;;;;;5008808;28;19924;-61
2023/06/27 00:19:05;;;;;;;;;;;;;;;;;;5011309;28;20345;-61
2023/06/27 00:21:30;;;;;;;;;;;;;;;;;;5011577;28;20533;-61
2023/06/27 00:23:58;;;;;;;;;;;;;;;;;;5011857;28;19928;-59
2023/06/27 00:26:24;;;;;;;;;;;;;;;;;;5010427;28;19917;-60
2023/06/27 00:28:49;;;;;;;;;;;;;;;;;;5019154;28;19941;-59
2023/06/27 00:31:14;;;;;;;;;;;;;;;;;;5008763;28;19941;-60
2023/06/27 00:33:40;;;;;;;;;;;;;;;;;;5010647;28;20000;-59
2023/06/27 00:36:09;;;;;;;;;;;;;;;;;;5012008;28;19917;-58
2023/06/27 00:38:34;;;;;;;;;;;;;;;;;;5010928;28;19926;-60
2023/06/27 00:41:00;;;;;;;;;;;;;;;;;;5011529;28;20577;-59
2023/06/27 00:43:25;;;;;;;;;;;;;;;;;;5012142;28;19917;-59
2023/06/27 00:45:50;;;;;;;;;;;;;;;;;;5009645;28;20411;-60
2023/06/27 00:48:17;;;;;;;;;;;;;;;;;;5011801;28;19925;-60
2023/06/27 00:50:42;;;;;;;;;;;;;;;;;;5013123;28;19998;-60
2023/06/27 00:53:07;;;;;;;;;;;;;;;;;;5011633;28;19925;-60
2023/06/27 00:55:34;;;;;;;;;;;;;;;;;;5011190;28;19928;-60
2023/06/27 00:58:00;;;;;;;;;;;;;;;;;;5008151;28;19917;-60
2023/06/27 01:00:25;;;;;;;;;;;;;;;;;;5011855;28;20383;-60
2023/06/27 01:02:50;;;;;;;;;;;;;;;;;;5011484;28;19925;-60
2023/06/27 01:05:15;;;;;;;;;;;;;;;;;;5011664;28;19918;-60
2023/06/27 01:07:42;;;;;;;;;;;;;;;;;;5007032;28;19917;-60
2023/06/27 01:10:07;;;;;;;;;;;;;;;;;;5010928;28;19928;-58
2023/06/27 01:12:32;;;;;;;;;;;;;;;;;;5012156;28;19951;-62
2023/06/27 01:14:58;;;;;;;;;;;;;;;;;;5019065;28;19917;-62
2023/06/27 01:17:23;;;;;;;;;;;;;;;;;;5009272;28;19922;-59
2023/06/27 01:19:49;;;;;;;;;;;;;;;;;;5010219;28;20654;-60
2023/06/27 01:22:15;;;;;;;;;;;;;;;;;;5013162;28;19960;-60
2023/06/27 01:24:40;;;;;;;;;;;;;;;;;;5015244;28;20221;-60
2023/06/27 01:27:06;;;;;;;;;;;;;;;;;;5012080;28;19980;-59
2023/06/27 01:29:34;;;;;;;;;;;;;;;;;;5012794;28;19936;-59
2023/06/27 01:32:00;;;;;;;;;;;;;;;;;;5014093;28;19925;-60
2023/06/27 01:34:25;;;;;;;;;;;;;;;;;;5011225;28;19924;-60
2023/06/27 01:36:50;;;;;;;;;;;;;;;;;;5012328;28;19917;-59
2023/06/27 01:39:16;;;;;;;;;;;;;;;;;;5011466;28;20013;-59
2023/06/27 01:41:41;;;;;;;;;;;;;;;;;;5013691;28;19921;-60
2023/06/27 01:44:06;;;;;;;;;;;;;;;;;;5023447;28;19916;-59
2023/06/27 01:46:32;;;;;;;;;;;;;;;;;;5010632;28;19987;-59
2023/06/27 01:48:58;;;;;;;;;;;;;;;;;;5008746;28;19917;-58
2023/06/27 01:51:23;;;;;;;;;;;;;;;;;;5008573;28;20298;-61
2023/06/27 01:53:48;;;;;;;;;;;;;;;;;;5014211;28;19963;-60
2023/06/27 01:56:14;;;;;;;;;;;;;;;;;;5009918;28;19937;-60
2023/06/27 01:58:40;;;;;;;;;;;;;;;;;;5006552;28;20463;-60
2023/06/27 02:01:05;;;;;;;;;;;;;;;;;;5009008;28;20401;-60
2023/06/27 02:03:30;;;;;;;;;;;;;;;;;;5008522;28;20375;-60
2023/06/27 02:05:55;;;;;;;;;;;;;;;;;;5006892;28;19956;-58
2023/06/27 02:08:21;;;;;;;;;;;;;;;;;;5017735;28;19922;-59
2023/06/27 02:10:46;;;;;;;;;;;;;;;;;;5010278;28;19917;-60
2023/06/27 02:13:11;;;;;;;;;;;;;;;;;;5011394;28;20341;-60
2023/06/27 02:15:37;;;;;;;;;;;;;;;;;;5011905;28;19917;-61
2023/06/27 02:18:04;;;;;;;;;;;;;;;;;;5010476;28;19921;-59
2023/06/27 02:20:29;;;;;;;;;;;;;;;;;;5019382;28;19921;-59
2023/06/27 02:22:55;;;;;;;;;;;;;;;;;;5007520;28;20243;-60
2023/06/27 02:25:20;;;;;;;;;;;;;;;;;;5007291;28;19949;-60
2023/06/27 02:27:45;;;;;;;;;;;;;;;;;;5010646;28;19920;-59
2023/06/27 02:30:11;;;;;;;;;;;;;;;;;;5007672;28;19924;-60
2023/06/27 02:32:36;;;;;;;;;;;;;;;;;;5008552;28;20475;-60
2023/06/27 02:35:03;;;;;;;;;;;;;;;;;;5008461;28;19917;-59
2023/06/27 02:37:28;;;;;;;;;;;;;;;;;;5010822;28;19921;-60
2023/06/27 02:39:54;;;;;;;;;;;;;;;;;;5015352;28;20005;-60
2023/06/27 02:42:20;;;;;;;;;;;;;;;;;;5020677;28;20027;-58
2023/06/27 02:44:48;;;;;;;;;;;;;;;;;;5014190;28;19925;-60
2023/06/27 02:47:13;;;;;;;;;;;;;;;;;;5019824;28;19940;-59
2023/06/27 02:49:39;;;;;;;;;;;;;;;;;;5015867;28;20490;-60
2023/06/27 02:52:04;;;;;;;;;;;;;;;;;;5011930;28;19917;-60
2023/06/27 02:54:32;;;;;;;;;;;;;;;;;;5013693;28;20315;-61
2023/06/27 02:56:58;;;;;;;;;;;;;;;;;;5022071;28;19917;-61
2023/06/27 02:59:24;;;;;;;;;;;;;;;;;;5022195;28;20535;-60
2023/06/27 03:01:50;;;;;;;;;;;;;;;;;;5017762;28;19929;-61
2023/06/27 03:04:15;;;;;;;;;;;;;;;;;;5015543;28;19990;-60
2023/06/27 03:06:41;;;;;;;;;;;;;;;;;;5012984;28;20647;-59
2023/06/27 03:09:06;;;;;;;;;;;;;;;;;;5014346;28;19975;-61
2023/06/27 03:11:31;;;;;;;;;;;;;;;;;;5018042;28;19941;-63
2023/06/27 03:13:57;;;;;;;;;;;;;;;;;;5011233;28;19929;-64
2023/06/27 03:16:22;;;;;;;;;;;;;;;;;;5014115;28;19917;-64
2023/06/27 03:18:47;;;;;;;;;;;;;;;;;;5013114;28;19975;-63
2023/06/27 03:21:13;;;;;;;;;;;;;;;;;;5011745;28;20346;-62
2023/06/27 03:23:38;;;;;;;;;;;;;;;;;;5014992;28;19917;-63
2023/06/27 03:26:03;;;;;;;;;;;;;;;;;;5014167;28;19971;-69
2023/06/27 03:28:29;;;;;;;;;;;;;;;;;;5016936;28;19957;-68
2023/06/27 03:30:55;;;;;;;;;;;;;;;;;;5010341;28;20316;-61
2023/06/27 03:33:21;;;;;;;;;;;;;;;;;;4999336;28;20024;-61
2023/06/27 03:35:48;;;;;;;;;;;;;;;;;;5015117;28;19917;-61
2023/06/27 03:38:15;;;;;;;;;;;;;;;;;;5012071;28;19972;-61
2023/06/27 03:40:41;;;;;;;;;;;;;;;;;;5008233;28;19917;-61
2023/06/27 03:43:06;;;;;;;;;;;;;;;;;;5009152;28;19948;-61
2023/06/27 03:45:32;;;;;;;;;;;;;;;;;;5014972;28;19917;-61
2023/06/27 03:47:57;;;;;;;;;;;;;;;;;;5012968;28;19986;-61
2023/06/27 03:50:22;;;;;;;;;;;;;;;;;;5014220;28;19917;-60
2023/06/27 03:52:48;;;;;;;;;;;;;;;;;;5016084;28;20375;-60
2023/06/27 03:55:16;;;;;;;;;;;;;;;;;;5020769;28;19925;-61
2023/06/27 03:57:42;;;;;;;;;;;;;;;;;;5016136;28;20501;-60
2023/06/27 04:00:07;;;;;;;;;;;;;;;;;;5013764;28;19924;-61
2023/06/27 04:02:40;;;;;;;;;;;;;;;;;;5015670;28;19999;-61
2023/06/27 04:05:06;;;;;;;;;;;;;;;;;;5016522;28;19940;-61
2023/06/27 04:07:31;;;;;;;;;;;;;;;;;;5014567;28;19917;-61
2023/06/27 04:09:56;;;;;;;;;;;;;;;;;;5013611;28;20365;-59
2023/06/27 04:12:24;;;;;;;;;;;;;;;;;;5015167;28;19921;-61
2023/06/27 04:14:49;;;;;;;;;;;;;;;;;;5012699;28;19918;-61
2023/06/27 04:17:14;;;;;;;;;;;;;;;;;;5012670;28;19924;-60
2023/06/27 04:19:40;;;;;;;;;;;;;;;;;;5022923;28;19932;-60
2023/06/27 04:22:05;;;;;;;;;;;;;;;;;;5020662;28;19937;-60
2023/06/27 04:24:30;;;;;;;;;;;;;;;;;;5016043;28;20300;-60
2023/06/27 04:26:56;;;;;;;;;;;;;;;;;;5011138;28;20399;-59
2023/06/27 04:29:21;;;;;;;;;;;;;;;;;;5014258;28;19970;-60
2023/06/27 04:31:47;;;;;;;;;;;;;;;;;;5020426;28;20502;-60
2023/06/27 04:34:12;;;;;;;;;;;;;;;;;;5013752;28;19917;-60
2023/06/27 04:36:40;;;;;;;;;;;;;;;;;;5010975;28;19917;-61
2023/06/27 04:39:06;;;;;;;;;;;;;;;;;;5015481;28;19929;-60
2023/06/27 04:41:31;;;;;;;;;;;;;;;;;;5012494;28;20008;-60
2023/06/27 04:43:58;;;;;;;;;;;;;;;;;;5011601;28;20003;-60
2023/06/27 04:46:27;;;;;;;;;;;;;;;;;;5012152;28;19917;-61
2023/06/27 04:48:54;;;;;;;;;;;;;;;;;;5011713;28;19917;-61
2023/06/27 04:51:19;;;;;;;;;;;;;;;;;;5011678;28;19923;-60
2023/06/27 04:53:44;;;;;;;;;;;;;;;;;;5011271;28;19929;-59
2023/06/27 04:56:10;;;;;;;;;;;;;;;;;;5011252;28;19923;-59
2023/06/27 04:58:36;;;;;;;;;;;;;;;;;;5010775;28;20031;-58
2023/06/27 05:01:01;;;;;;;;;;;;;;;;;;5011901;28;19917;-60
2023/06/27 05:03:26;;;;;;;;;;;;;;;;;;5012637;28;20491;-58
2023/06/27 05:05:52;;;;;;;;;;;;;;;;;;5010046;28;20018;-60
2023/06/27 05:08:17;;;;;;;;;;;;;;;;;;5012976;28;20624;-60
2023/06/27 05:10:42;;;;;;;;;;;;;;;;;;5011663;28;20011;-62
2023/06/27 05:13:08;;;;;;;;;;;;;;;;;;5007642;28;19980;-60
2023/06/27 05:15:33;;;;;;;;;;;;;;;;;;5008775;28;20515;-60
2023/06/27 05:17:58;;;;;;;;;;;;;;;;;;5011242;28;20719;-60
2023/06/27 05:20:24;;;;;;;;;;;;;;;;;;5012641;28;20613;-59
2023/06/27 05:22:50;;;;;;;;;;;;;;;;;;5012813;28;20283;-59
2023/06/27 05:25:15;;;;;;;;;;;;;;;;;;5013150;28;20454;-58
2023/06/27 05:27:40;;;;;;;;;;;;;;;;;;5010704;28;19966;-58
2023/06/27 05:30:05;;;;;;;;;;;;;;;;;;5014489;28;19921;-58
2023/06/27 05:32:31;;;;;;;;;;;;;;;;;;5010178;28;20015;-58
2023/06/27 05:34:56;;;;;;;;;;;;;;;;;;5011635;28;19917;-58
2023/06/27 05:37:21;;;;;;;;;;;;;;;;;;5011811;28;19918;-60
2023/06/27 05:39:47;;;;;;;;;;;;;;;;;;5014006;28;20016;-59
2023/06/27 05:42:12;;;;;;;;;;;;;;;;;;5010614;28;19936;-60
2023/06/27 05:44:37;;;;;;;;;;;;;;;;;;5012032;28;19925;-60
2023/06/27 05:47:02;;;;;;;;;;;;;;;;;;5011809;28;19923;-60
2023/06/27 05:49:28;;;;;;;;;;;;;;;;;;5010879;28;19918;-60
2023/06/27 05:51:54;;;;;;;;;;;;;;;;;;5010664;28;20008;-60
2023/06/27 05:54:19;;;;;;;;;;;;;;;;;;5011180;28;19937;-60
2023/06/27 05:56:45;;;;;;;;;;;;;;;;;;5011195;28;19917;-60
2023/06/27 05:59:10;;;;;;;;;;;;;;;;;;5010747;28;19913;-59
2023/06/27 06:01:37;;;;;;;;;;;;;;;;;;5010817;28;19925;-60
2023/06/27 06:04:02;;;;;;;;;;;;;;;;;;5011425;28;19924;-59
2023/06/27 06:06:27;;;;;;;;;;;;;;;;;;5011263;28;19917;-60
2023/06/27 06:08:53;;;;;;;;;;;;;;;;;;5011827;28;19925;-60
2023/06/27 06:11:18;;;;;;;;;;;;;;;;;;5018349;28;20416;-60
2023/06/27 06:13:43;;;;;;;;;;;;;;;;;;5013815;28;19917;-58
2023/06/27 06:16:12;;;;;;;;;;;;;;;;;;5010416;28;20012;-60
2023/06/27 06:18:37;;;;;;;;;;;;;;;;;;5010218;28;19951;-60
2023/06/27 06:21:02;;;;;;;;;;;;;;;;;;5011239;28;19921;-60
2023/06/27 06:23:28;;;;;;;;;;;;;;;;;;5010430;28;20360;-60
2023/06/27 06:25:53;;;;;;;;;;;;;;;;;;5010590;28;19943;-60
2023/06/27 06:28:18;;;;;;;;;;;;;;;;;;5012836;28;19940;-60
2023/06/27 06:30:43;;;;;;;;;;;;;;;;;;5010798;28;20426;-59
2023/06/27 06:33:09;;;;;;;;;;;;;;;;;;5012205;28;20594;-60
2023/06/27 06:35:34;;;;;;;;;;;;;;;;;;5010219;28;19971;-61
2023/06/27 06:38:01;;;;;;;;;;;;;;;;;;5009775;28;19923;-60
2023/06/27 06:40:29;;;;;;;;;;;;;;;;;;5011492;28;19949;-61
2023/06/27 06:42:54;;;;;;;;;;;;;;;;;;5010824;28;20000;-60
2023/06/27 06:45:19;;;;;;;;;;;;;;;;;;5011005;28;19960;-59
2023/06/27 06:47:45;;;;;;;;;;;;;;;;;;5009874;28;19933;-60
2023/06/27 06:50:10;;;;;;;;;;;;;;;;;;5011539;28;19937;-60
2023/06/27 06:52:35;;;;;;;;;;;;;;;;;;5011096;28;19921;-62
2023/06/27 06:55:00;;;;;;;;;;;;;;;;;;5011184;28;19975;-60
2023/06/27 06:57:26;;;;;;;;;;;;;;;;;;5009650;28;20004;-59
2023/06/27 06:59:52;;;;;;;;;;;;;;;;;;5011527;28;19963;-60
2023/06/27 07:02:17;;;;;;;;;;;;;;;;;;5012084;28;19932;-60
2023/06/27 07:04:42;;;;;;;;;;;;;;;;;;5012083;28;19949;-61
2023/06/27 07:07:08;;;;;;;;;;;;;;;;;;5011355;28;19918;-60
2023/06/27 07:09:33;;;;;;;;;;;;;;;;;;5010414;28;19994;-61
2023/06/27 07:11:59;;;;;;;;;;;;;;;;;;5012591;28;19928;-61
2023/06/27 07:14:24;;;;;;;;;;;;;;;;;;5011274;28;19917;-60
2023/06/27 07:16:50;;;;;;;;;;;;;;;;;;5010601;28;19924;-59
2023/06/27 07:19:15;;;;;;;;;;;;;;;;;;5010694;28;19917;-61
2023/06/27 07:21:40;;;;;;;;;;;;;;;;;;5011669;28;20434;-59
2023/06/27 07:24:05;;;;;;;;;;;;;;;;;;5014371;28;20032;-61
2023/06/27 07:26:31;;;;;;;;;;;;;;;;;;5014302;28;19980;-61
2023/06/27 07:28:56;;;;;;;;;;;;;;;;;;5013449;28;19967;-59
2023/06/27 07:31:22;;;;;;;;;;;;;;;;;;5013432;28;19917;-60
2023/06/27 07:33:47;;;;;;;;;;;;;;;;;;5015535;28;19917;-60
2023/06/27 07:36:12;;;;;;;;;;;;;;;;;;5015480;28;19940;-61
2023/06/27 07:38:38;;;;;;;;;;;;;;;;;;5015272;28;20053;-61
2023/06/27 07:41:03;;;;;;;;;;;;;;;;;;5017449;28;19918;-60
2023/06/27 07:43:28;;;;;;;;;;;;;;;;;;5014188;28;19929;-61
2023/06/27 07:45:53;;;;;;;;;;;;;;;;;;5012194;28;20016;-62
2023/06/27 07:48:19;;;;;;;;;;;;;;;;;;5013152;28;20012;-61
2023/06/27 07:50:45;;;;;;;;;;;;;;;;;;5014401;28;19913;-61
2023/06/27 07:53:10;;;;;;;;;;;;;;;;;;5017182;28;19917;-65
2023/06/27 07:55:35;;;;;;;;;;;;;;;;;;5014744;28;19921;-62
2023/06/27 07:58:00;;;;;;;;;;;;;;;;;;5016114;28;20416;-60
2023/06/27 08:00:26;;;;;;;;;;;;;;;;;;5012022;28;19917;-61
2023/06/27 08:02:51;;;;;;;;;;;;;;;;;;5014646;28;19967;-61
2023/06/27 08:05:16;;;;;;;;;;;;;;;;;;5015015;28;20036;-60
2023/06/27 08:07:41;;;;;;;;;;;;;;;;;;5014271;28;20332;-60
2023/06/27 08:10:07;;;;;;;;;;;;;;;;;;5013987;28;19928;-61
2023/06/27 08:12:32;;;;;;;;;;;;;;;;;;5010278;28;20361;-61
2023/06/27 08:14:58;;;;;;;;;;;;;;;;;;5015343;28;19926;-60
2023/06/27 08:17:23;;;;;;;;;;;;;;;;;;5013295;28;19918;-61
2023/06/27 08:19:48;;;;;;;;;;;;;;;;;;5016412;28;19921;-62
2023/06/27 08:22:14;;;;;;;;;;;;;;;;;;5014266;28;19998;-61
2023/06/27 08:24:40;;;;;;;;;;;;;;;;;;5013517;28;19928;-61
2023/06/27 08:27:05;;;;;;;;;;;;;;;;;;4982840;28;20480;-61
2023/06/27 08:29:30;;;;;;;;;;;;;;;;;;4975755;28;19940;-61
2023/06/27 08:31:59;;;;;;;;;;;;;;;;;;4975900;28;19918;-61
2023/06/27 08:34:24;;;;;;;;;;;;;;;;;;4974926;28;20045;-61
2023/06/27 08:36:49;;;;;;;;;;;;;;;;;;4974292;28;19964;-61
2023/06/27 08:39:14;;;;;;;;;;;;;;;;;;4975119;28;19961;-60
2023/06/27 08:41:40;;;;;;;;;;;;;;;;;;4973611;28;19926;-61
2023/06/27 08:44:05;;;;;;;;;;;;;;;;;;4980695;28;19918;-61
2023/06/27 08:46:31;;;;;;;;;;;;;;;;;;4974845;28;20389;-61
2023/06/27 08:48:56;;;;;;;;;;;;;;;;;;4973481;28;20404;-61
2023/06/27 08:51:21;;;;;;;;;;;;;;;;;;4975796;28;19918;-61
2023/06/27 08:53:47;;;;;;;;;;;;;;;;;;4972406;28;20032;-61
2023/06/27 08:56:13;;;;;;;;;;;;;;;;;;4973859;28;19924;-61
2023/06/27 08:58:38;;;;;;;;;;;;;;;;;;4973011;28;19918;-60
2023/06/27 09:01:04;;;;;;;;;;;;;;;;;;4972367;28;19918;-61
2023/06/27 09:03:30;;;;;;;;;;;;;;;;;;4972555;28;19922;-61
2023/06/27 09:05:55;;;;;;;;;;;;;;;;;;4973244;28;19929;-59
2023/06/27 09:08:22;;;;;;;;;;;;;;;;;;4970418;28;20313;-62
2023/06/27 09:10:47;;;;;;;;;;;;;;;;;;4971932;28;19918;-59
2023/06/27 09:13:13;;;;;;;;;;;;;;;;;;4972377;28;19917;-60
2023/06/27 09:15:38;;;;;;;;;;;;;;;;;;4980159;28;20015;-61
2023/06/27 09:18:03;;;;;;;;;;;;;;;;;;4973506;28;19918;-60
2023/06/27 09:20:29;;;;;;;;;;;;;;;;;;4973140;28;20710;-60
2023/06/27 09:22:54;;;;;;;;;;;;;;;;;;4972645;28;19949;-60
2023/06/27 09:25:19;;;;;;;;;;;;;;;;;;4973641;28;20036;-61
2023/06/27 09:27:45;;;;;;;;;;;;;;;;;;4972236;28;19922;-61
2023/06/27 09:30:11;;;;;;;;;;;;;;;;;;4972860;28;19914;-60
2023/06/27 09:32:36;;;;;;;;;;;;;;;;;;4972278;28;19925;-62
2023/06/27 09:35:03;;;;;;;;;;;;;;;;;;4971549;28;20285;-63
2023/06/27 09:37:29;;;;;;;;;;;;;;;;;;4973197;28;20380;-59
2023/06/27 09:39:54;;;;;;;;;;;;;;;;;;4973976;28;19933;-61
2023/06/27 09:42:19;;;;;;;;;;;;;;;;;;4971637;28;19926;-60
2023/06/27 09:44:45;;;;;;;;;;;;;;;;;;4972259;28;19929;-61
2023/06/27 09:47:10;;;;;;;;;;;;;;;;;;4973668;28;19925;-62
2023/06/27 09:49:35;;;;;;;;;;;;;;;;;;4971943;28;20569;-61
2023/06/27 09:52:01;;;;;;;;;;;;;;;;;;4971039;28;19917;-62
2023/06/27 09:54:26;;;;;;;;;;;;;;;;;;4970000;28;19988;-62
2023/06/27 09:56:51;;;;;;;;;;;;;;;;;;4971419;28;20348;-62
2023/06/27 09:59:16;;;;;;;;;;;;;;;;;;4970949;28;19918;-62
2023/06/27 10:01:42;;;;;;;;;;;;;;;;;;4970854;28;19925;-61
2023/06/27 10:04:07;;;;;;;;;;;;;;;;;;4970393;28;19918;-61
2023/06/27 10:06:32;;;;;;;;;;;;;;;;;;4972173;28;19918;-61
2023/06/27 10:08:57;;;;;;;;;;;;;;;;;;4971664;28;19922;-62
2023/06/27 10:11:23;;;;;;;;;;;;;;;;;;4968898;28;20000;-61
2023/06/27 10:13:48;;;;;;;;;;;;;;;;;;4968400;28;20178;-62
2023/06/27 10:16:13;;;;;;;;;;;;;;;;;;4969484;28;20326;-61
2023/06/27 10:18:38;;;;;;;;;;;;;;;;;;4969636;28;19932;-61
2023/06/27 10:21:04;;;;;;;;;;;;;;;;;;4970616;28;19918;-62
2023/06/27 10:23:29;;;;;;;;;;;;;;;;;;4972404;28;20489;-61
2023/06/27 10:25:54;;;;;;;;;;;;;;;;;;4978320;28;19918;-62
2023/06/27 10:28:20;;;;;;;;;;;;;;;;;;4970857;28;19918;-62
2023/06/27 10:30:46;;;;;;;;;;;;;;;;;;4972130;28;20056;-61
2023/06/27 10:33:11;;;;;;;;;;;;;;;;;;4971692;28;20457;-61
2023/06/27 10:35:37;;;;;;;;;;;;;;;;;;4970943;28;19918;-61
2023/06/27 10:38:03;;;;;;;;;;;;;;;;;;4971202;28;19922;-60
2023/06/27 10:40:29;;;;;;;;;;;;;;;;;;4970215;28;19922;-61
2023/06/27 10:42:54;;;;;;;;;;;;;;;;;;4970420;28;19926;-61
2023/06/27 10:45:20;;;;;;;;;;;;;;;;;;4986892;28;19925;-61
2023/06/27 10:47:45;;;;;;;;;;;;;;;;;;4971947;28;19918;-61
2023/06/27 10:50:10;;;;;;;;;;;;;;;;;;4970679;28;19934;-61
2023/06/27 10:52:35;;;;;;;;;;;;;;;;;;4972919;28;19925;-61
2023/06/27 10:55:01;;;;;;;;;;;;;;;;;;4968194;28;19930;-61
2023/06/27 10:57:28;;;;;;;;;;;;;;;;;;4974634;28;19925;-60
2023/06/27 10:59:55;;;;;;;;;;;;;;;;;;4975011;28;19917;-59
2023/06/27 11:02:21;;;;;;;;;;;;;;;;;;4975169;28;19965;-60
2023/06/27 11:04:46;;;;;;;;;;;;;;;;;;4973240;28;20025;-61
2023/06/27 11:07:12;;;;;;;;;;;;;;;;;;4974714;28;19918;-61
2023/06/27 11:09:37;;;;;;;;;;;;;;;;;;4973696;28;20369;-60
2023/06/27 11:12:03;;;;;;;;;;;;;;;;;;4975562;28;19922;-60
2023/06/27 11:14:28;;;;;;;;;;;;;;;;;;4975707;28;20145;-61
2023/06/27 11:16:54;;;;;;;;;;;;;;;;;;4974488;28;19918;-60
2023/06/27 11:19:19;;;;;;;;;;;;;;;;;;4974861;28;20359;-61
2023/06/27 11:21:44;;;;;;;;;;;;;;;;;;4974038;28;19926;-60
2023/06/27 11:24:10;;;;;;;;;;;;;;;;;;4974605;28;19917;-60
2023/06/27 11:26:35;;;;;;;;;;;;;;;;;;4975756;28;20865;-60
2023/06/27 11:29:00;;;;;;;;;;;;;;;;;;4974171;28;20393;-61
2023/06/27 11:31:26;;;;;;;;;;;;;;;;;;4973597;28;19918;-60
2023/06/27 11:33:51;;;;;;;;;;;;;;;;;;4973162;28;20352;-60
2023/06/27 11:36:16;;;;;;;;;;;;;;;;;;4974773;28;20349;-61
2023/06/27 11:38:41;;;;;;;;;;;;;;;;;;4975393;28;20026;-60
2023/06/27 11:41:08;;;;;;;;;;;;;;;;;;4976000;28;19925;-59
2023/06/27 11:43:33;;;;;;;;;;;;;;;;;;4975591;28;19918;-61
2023/06/27 11:46:00;;;;;;;;;;;;;;;;;;4974697;28;19945;-59
2023/06/27 11:48:26;;;;;;;;;;;;;;;;;;4974340;28;20013;-60
2023/06/27 11:50:51;;;;;;;;;;;;;;;;;;4974071;28;20037;-60
2023/06/27 11:53:16;;;;;;;;;;;;;;;;;;4974288;28;19926;-60
2023/06/27 11:55:41;;;;;;;;;;;;;;;;;;4974370;28;20361;-60
2023/06/27 11:58:07;;;;;;;;;;;;;;;;;;4972892;28;19945;-60
2023/06/27 12:00:32;;;;;;;;;;;;;;;;;;4973412;28;19966;-60
2023/06/27 12:02:58;;;;;;;;;;;;;;;;;;4973210;28;20396;-61
2023/06/27 12:05:23;;;;;;;;;;;;;;;;;;4975476;28;19984;-61
2023/06/27 12:07:48;;;;;;;;;;;;;;;;;;4975619;28;19976;-59
2023/06/27 12:10:14;;;;;;;;;;;;;;;;;;4977074;28;19918;-62
2023/06/27 12:12:40;;;;;;;;;;;;;;;;;;4976471;28;20020;-59
2023/06/27 12:15:05;;;;;;;;;;;;;;;;;;4972483;28;20106;-60
2023/06/27 12:17:30;;;;;;;;;;;;;;;;;;4975074;28;20226;-60
2023/06/27 12:19:56;;;;;;;;;;;;;;;;;;4975115;28;19947;-59
2023/06/27 12:22:22;;;;;;;;;;;;;;;;;;4975041;28;20075;-61
2023/06/27 12:25:13;;;;;;;;;;;;;;;;;;4970876;28;19956;-60
2023/06/27 12:27:38;;;;;;;;;;;;;;;;;;4974961;28;19953;-62
2023/06/27 12:30:09;;;;;;;;;;;;;;;;;;4973382;28;19944;-60
2023/06/27 12:32:35;;;;;;;;;;;;;;;;;;4974616;28;19918;-60
2023/06/27 12:35:01;;;;;;;;;;;;;;;;;;4974124;28;19972;-61
2023/06/27 12:37:28;;;;;;;;;;;;;;;;;;4974961;28;19922;-62
2023/06/27 12:39:53;;;;;;;;;;;;;;;;;;4974181;28;19918;-61
2023/06/27 12:42:18;;;;;;;;;;;;;;;;;;4972206;28;19960;-61
2023/06/27 12:44:44;;;;;;;;;;;;;;;;;;4974768;28;19983;-60
2023/06/27 12:47:09;;;;;;;;;;;;;;;;;;4973667;28;20433;-59
2023/06/27 12:49:38;;;;;;;;;;;;;;;;;;4975054;28;19985;-59
2023/06/27 12:52:04;;;;;;;;;;;;;;;;;;4980065;28;19918;-61
2023/06/27 12:54:29;;;;;;;;;;;;;;;;;;4971023;28;20431;-61
2023/06/27 12:56:55;;;;;;;;;;;;;;;;;;4973436;28;19918;-61
2023/06/27 12:59:26;;;;;;;;;;;;;;;;;;4981200;28;19956;-62
2023/06/27 13:01:55;;;;;;;;;;;;;;;;;;4976830;28;20365;-60
2023/06/27 13:04:22;;;;;;;;;;;;;;;;;;4973941;28;19918;-63
2023/06/27 13:06:53;;;;;;;;;;;;;;;;;;4973847;28;19952;-60
2023/06/27 13:09:19;;;;;;;;;;;;;;;;;;4973618;28;19926;-60
2023/06/27 13:11:44;;;;;;;;;;;;;;;;;;4979143;28;19918;-62
2023/06/27 13:14:13;;;;;;;;;;;;;;;;;;4972278;28;20503;-61
2023/06/27 13:16:38;;;;;;;;;;;;;;;;;;4973639;28;19918;-59
2023/06/27 13:19:07;;;;;;;;;;;;;;;;;;4971784;28;19960;-60
2023/06/27 13:21:32;;;;;;;;;;;;;;;;;;4971399;28;19929;-64
2023/06/27 13:24:02;;;;;;;;;;;;;;;;;;4971159;28;20027;-63
2023/06/27 13:26:29;;;;;;;;;;;;;;;;;;4974806;28;20055;-60
2023/06/27 13:28:54;;;;;;;;;;;;;;;;;;4972107;28;19925;-60
2023/06/27 13:31:20;;;;;;;;;;;;;;;;;;4974429;28;19977;-61
2023/06/27 13:33:48;;;;;;;;;;;;;;;;;;4980833;28;19965;-64
2023/06/27 13:36:13;;;;;;;;;;;;;;;;;;4972174;28;19957;-61
2023/06/27 13:38:40;;;;;;;;;;;;;;;;;;4973457;28;19965;-60
2023/06/27 13:41:07;;;;;;;;;;;;;;;;;;4980828;28;19918;-59
2023/06/27 13:43:34;;;;;;;;;;;;;;;;;;4973197;28;19929;-62
2023/06/27 13:46:00;;;;;;;;;;;;;;;;;;4971925;28;19945;-61
2023/06/27 13:48:27;;;;;;;;;;;;;;;;;;4972519;28;19918;-61
2023/06/27 13:50:56;;;;;;;;;;;;;;;;;;4979925;28;19918;-62
2023/06/27 13:53:23;;;;;;;;;;;;;;;;;;4973144;28;20321;-61
2023/06/27 13:55:48;;;;;;;;;;;;;;;;;;4972187;28;19926;-63
2023/06/27 13:58:14;;;;;;;;;;;;;;;;;;4971837;28;20013;-62
2023/06/27 14:00:40;;;;;;;;;;;;;;;;;;4973454;28;19944;-59
2023/06/27 14:03:05;;;;;;;;;;;;;;;;;;4979519;28;19952;-60
2023/06/27 14:05:31;;;;;;;;;;;;;;;;;;4973260;28;19994;-61
2023/06/27 14:07:59;;;;;;;;;;;;;;;;;;4973411;28;20326;-60
2023/06/27 14:10:29;;;;;;;;;;;;;;;;;;4974548;28;19972;-61
2023/06/27 14:12:56;;;;;;;;;;;;;;;;;;4972102;28;19925;-60
2023/06/27 14:15:23;;;;;;;;;;;;;;;;;;4973939;28;19918;-61
2023/06/27 14:17:48;;;;;;;;;;;;;;;;;;4971972;28;20046;-61
2023/06/27 14:20:15;;;;;;;;;;;;;;;;;;4972350;28;20259;-63
2023/06/27 14:22:41;;;;;;;;;;;;;;;;;;4981857;28;19929;-60
2023/06/27 14:25:07;;;;;;;;;;;;;;;;;;4971922;28;19937;-60
2023/06/27 14:27:32;;;;;;;;;;;;;;;;;;4969976;28;20015;-59
2023/06/27 14:29:59;;;;;;;;;;;;;;;;;;4975302;28;19918;-63
2023/06/27 14:32:25;;;;;;;;;;;;;;;;;;4985121;28;19963;-64
2023/06/27 14:34:52;;;;;;;;;;;;;;;;;;4976909;28;20046;-61
2023/06/27 14:37:18;;;;;;;;;;;;;;;;;;4976207;28;19939;-60
2023/06/27 14:39:44;;;;;;;;;;;;;;;;;;4975438;28;19918;-60
2023/06/27 14:42:09;;;;;;;;;;;;;;;;;;4977160;28;20375;-60
2023/06/27 14:44:35;;;;;;;;;;;;;;;;;;4977298;28;20029;-61
2023/06/27 14:47:00;;;;;;;;;;;;;;;;;;4975875;28;19983;-60
2023/06/27 14:49:25;;;;;;;;;;;;;;;;;;4974940;28;20031;-61
2023/06/27 14:51:51;;;;;;;;;;;;;;;;;;4977325;28;19965;-61
2023/06/27 14:54:16;;;;;;;;;;;;;;;;;;4974604;28;20458;-60
2023/06/27 14:56:42;;;;;;;;;;;;;;;;;;4974880;28;19918;-60
2023/06/27 14:59:08;;;;;;;;;;;;;;;;;;4976295;28;20520;-65
2023/06/27 15:01:33;;;;;;;;;;;;;;;;;;4976679;28;19968;-60
2023/06/27 15:03:58;;;;;;;;;;;;;;;;;;4976633;28;20482;-61
2023/06/27 15:06:23;;;;;;;;;;;;;;;;;;4976358;28;19964;-60
2023/06/27 15:08:51;;;;;;;;;;;;;;;;;;4977037;28;19938;-61
2023/06/27 15:11:17;;;;;;;;;;;;;;;;;;4976381;28;20012;-60
2023/06/27 15:13:44;;;;;;;;;;;;;;;;;;4976554;28;19918;-61
2023/06/27 15:16:14;;;;;;;;;;;;;;;;;;4976619;28;19941;-62
2023/06/27 15:18:40;;;;;;;;;;;;;;;;;;4976089;28;19925;-60
2023/06/27 15:21:06;;;;;;;;;;;;;;;;;;4976039;28;19922;-61
2023/06/27 15:23:31;;;;;;;;;;;;;;;;;;4975652;28;19961;-62
2023/06/27 15:25:56;;;;;;;;;;;;;;;;;;4976440;28;20391;-62
2023/06/27 15:28:22;;;;;;;;;;;;;;;;;;4975006;28;19918;-65
2023/06/27 15:30:51;;;;;;;;;;;;;;;;;;4975012;28;19918;-61
2023/06/27 15:33:16;;;;;;;;;;;;;;;;;;4974440;28;20094;-65
2023/06/27 15:35:41;;;;;;;;;;;;;;;;;;4973924;28;19918;-60
2023/06/27 15:38:10;;;;;;;;;;;;;;;;;;4975354;28;19963;-60
2023/06/27 15:40:36;;;;;;;;;;;;;;;;;;4977299;28;19933;-61
2023/06/27 15:43:01;;;;;;;;;;;;;;;;;;4974173;28;20344;-62
2023/06/27 15:45:26;;;;;;;;;;;;;;;;;;4975034;28;20347;-62
2023/06/27 15:47:51;;;;;;;;;;;;;;;;;;4972173;28;20345;-62
2023/06/27 15:50:17;;;;;;;;;;;;;;;;;;4972356;28;19953;-61
2023/06/27 15:52:42;;;;;;;;;;;;;;;;;;4973824;28;20484;-61
2023/06/27 15:55:08;;;;;;;;;;;;;;;;;;4972905;28;19925;-60
2023/06/27 15:57:33;;;;;;;;;;;;;;;;;;4978779;28;20419;-60
2023/06/27 15:59:58;;;;;;;;;;;;;;;;;;4975314;28;19921;-62
2023/06/27 16:02:24;;;;;;;;;;;;;;;;;;4976301;28;19980;-61
2023/06/27 16:04:49;;;;;;;;;;;;;;;;;;4973528;28;19926;-61
2023/06/27 16:07:15;;;;;;;;;;;;;;;;;;4973157;28;19918;-62
2023/06/27 16:09:40;;;;;;;;;;;;;;;;;;4972880;28;19937;-62
2023/06/27 16:12:05;;;;;;;;;;;;;;;;;;4973636;28;20453;-62
2023/06/27 16:14:30;;;;;;;;;;;;;;;;;;4974214;28;19928;-60
2023/06/27 16:16:56;;;;;;;;;;;;;;;;;;4972868;28;20009;-61
2023/06/27 16:19:21;;;;;;;;;;;;;;;;;;4974642;28;20365;-61
2023/06/27 16:21:46;;;;;;;;;;;;;;;;;;4972513;28;19946;-62
2023/06/27 16:24:12;;;;;;;;;;;;;;;;;;4974560;28;19926;-62
2023/06/27 16:26:37;;;;;;;;;;;;;;;;;;4974167;28;20771;-62
2023/06/27 16:29:03;;;;;;;;;;;;;;;;;;4973856;28;19925;-62
2023/06/27 16:31:28;;;;;;;;;;;;;;;;;;4972987;28;19918;-61
2023/06/27 16:33:53;;;;;;;;;;;;;;;;;;4973966;28;20352;-62
2023/06/27 16:36:19;;;;;;;;;;;;;;;;;;4973919;28;19929;-62